sensor_id;sensor_type;location;lat;lon;timestamp;temperature;humidity
1351;DHT22;669;50.206;9.998;2023-03-01T00:01:45;-0.40;62.80
1351;DHT22;669;50.206;9.998;2023-03-01T00:04:13;-0.40;63.20
1351;DHT22;669;50.206;9.998;2023-03-01T00:06:42;-0.40;62.50
1351;DHT22;669;50.206;9.998;2023-03-01T00:09:12;-0.40;63.40
1351;DHT22;669;50.206;9.998;2023-03-01T00:11:41;-0.40;62.60
1351;DHT22;669;50.206;9.998;2023-03-01T00:14:09;-0.40;63.00
1351;DHT22;669;50.206;9.998;2023-03-01T00:16:40;-0.40;63.20
1351;DHT22;669;50.206;9.998;2023-03-01T00:19:11;-0.40;63.20
1351;DHT22;669;50.206;9.998;2023-03-01T00:21:40;-0.40;62.80
1351;DHT22;669;50.206;9.998;2023-03-01T00:24:08;-0.40;63.70
1351;DHT22;669;50.206;9.998;2023-03-01T00:26:37;-0.40;63.80
1351;DHT22;669;50.206;9.998;2023-03-01T00:29:05;-0.40;63.70
1351;DHT22;669;50.206;9.998;2023-03-01T00:31:33;-0.40;63.40
1351;DHT22;669;50.206;9.998;2023-03-01T00:34:04;-0.40;63.20
1351;DHT22;669;50.206;9.998;2023-03-01T00:36:35;-0.40;63.40
1351;DHT22;669;50.206;9.998;2023-03-01T00:39:04;-0.30;64.10
1351;DHT22;669;50.206;9.998;2023-03-01T00:41:32;-0.30;62.10
1351;DHT22;669;50.206;9.998;2023-03-01T00:44:01;-0.40;62.30
1351;DHT22;669;50.206;9.998;2023-03-01T00:46:29;-0.40;62.60
1351;DHT22;669;50.206;9.998;2023-03-01T00:48:58;-0.30;62.70
1351;DHT22;669;50.206;9.998;2023-03-01T00:51:30;-0.40;62.50
1351;DHT22;669;50.206;9.998;2023-03-01T00:54:00;-0.40;62.30
1351;DHT22;669;50.206;9.998;2023-03-01T00:56:28;-0.30;62.60
1351;DHT22;669;50.206;9.998;2023-03-01T00:58:57;-0.30;61.90
1351;DHT22;669;50.206;9.998;2023-03-01T01:01:27;-0.30;61.40
1351;DHT22;669;50.206;9.998;2023-03-01T01:03:59;-0.30;61.80
1351;DHT22;669;50.206;9.998;2023-03-01T01:06:30;-0.30;61.80
1351;DHT22;669;50.206;9.998;2023-03-01T01:08:59;-0.30;60.80
1351;DHT22;669;50.206;9.998;2023-03-01T01:11:29;-0.30;61.10
1351;DHT22;669;50.206;9.998;2023-03-01T01:13:58;-0.30;61.50
1351;DHT22;669;50.206;9.998;2023-03-01T01:16:27;-0.30;62.10
1351;DHT22;669;50.206;9.998;2023-03-01T01:18:57;-0.30;62.80
1351;DHT22;669;50.206;9.998;2023-03-01T01:21:25;-0.30;61.90
1351;DHT22;669;50.206;9.998;2023-03-01T01:23:55;-0.30;62.80
1351;DHT22;669;50.206;9.998;2023-03-01T01:26:25;-0.30;61.60
1351;DHT22;669;50.206;9.998;2023-03-01T01:28:54;-0.30;61.50
1351;DHT22;669;50.206;9.998;2023-03-01T01:31:22;-0.30;61.90
1351;DHT22;669;50.206;9.998;2023-03-01T01:33:51;-0.30;62.40
1351;DHT22;669;50.206;9.998;2023-03-01T01:36:20;-0.30;62.00
1351;DHT22;669;50.206;9.998;2023-03-01T01:38:48;-0.30;61.70
1351;DHT22;669;50.206;9.998;2023-03-01T01:41:17;-0.20;61.70
1351;DHT22;669;50.206;9.998;2023-03-01T01:43:48;-0.30;61.80
1351;DHT22;669;50.206;9.998;2023-03-01T01:46:21;-0.30;61.10
1351;DHT22;669;50.206;9.998;2023-03-01T01:48:55;-0.30;61.50
1351;DHT22;669;50.206;9.998;2023-03-01T01:51:27;-0.30;61.70
1351;DHT22;669;50.206;9.998;2023-03-01T01:53:59;-0.30;61.40
1351;DHT22;669;50.206;9.998;2023-03-01T01:56:30;-0.30;61.70
1351;DHT22;669;50.206;9.998;2023-03-01T01:58:58;-0.30;61.10
1351;DHT22;669;50.206;9.998;2023-03-01T02:01:26;-0.30;61.60
1351;DHT22;669;50.206;9.998;2023-03-01T02:03:54;-0.30;61.50
1351;DHT22;669;50.206;9.998;2023-03-01T02:06:27;-0.30;61.50
1351;DHT22;669;50.206;9.998;2023-03-01T02:08:59;-0.30;62.10
1351;DHT22;669;50.206;9.998;2023-03-01T02:11:31;-0.30;61.40
1351;DHT22;669;50.206;9.998;2023-03-01T02:14:00;-0.30;61.00
1351;DHT22;669;50.206;9.998;2023-03-01T02:16:28;-0.30;60.90
1351;DHT22;669;50.206;9.998;2023-03-01T02:18:58;-0.30;61.30
1351;DHT22;669;50.206;9.998;2023-03-01T02:21:37;-0.30;61.70
1351;DHT22;669;50.206;9.998;2023-03-01T02:24:15;-0.30;60.90
1351;DHT22;669;50.206;9.998;2023-03-01T02:26:50;-0.30;61.20
1351;DHT22;669;50.206;9.998;2023-03-01T02:29:21;-0.30;61.10
1351;DHT22;669;50.206;9.998;2023-03-01T02:31:49;-0.30;61.20
1351;DHT22;669;50.206;9.998;2023-03-01T02:34:20;-0.30;60.60
1351;DHT22;669;50.206;9.998;2023-03-01T02:36:51;-0.30;60.10
1351;DHT22;669;50.206;9.998;2023-03-01T02:39:25;-0.30;60.90
1351;DHT22;669;50.206;9.998;2023-03-01T02:41:54;-0.30;60.80
1351;DHT22;669;50.206;9.998;2023-03-01T02:44:25;-0.30;60.90
1351;DHT22;669;50.206;9.998;2023-03-01T02:46:55;-0.30;60.80
1351;DHT22;669;50.206;9.998;2023-03-01T02:49:26;-0.30;60.00
1351;DHT22;669;50.206;9.998;2023-03-01T02:52:16;-0.30;59.20
1351;DHT22;669;50.206;9.998;2023-03-01T02:54:52;-0.30;59.30
1351;DHT22;669;50.206;9.998;2023-03-01T02:57:20;-0.30;59.00
1351;DHT22;669;50.206;9.998;2023-03-01T02:59:51;-0.30;58.70
1351;DHT22;669;50.206;9.998;2023-03-01T03:02:22;-0.30;59.00
1351;DHT22;669;50.206;9.998;2023-03-01T03:05:05;-0.30;58.70
1351;DHT22;669;50.206;9.998;2023-03-01T03:07:35;-0.30;59.70
1351;DHT22;669;50.206;9.998;2023-03-01T03:10:06;-0.30;59.30
1351;DHT22;669;50.206;9.998;2023-03-01T03:12:35;-0.30;58.40
1351;DHT22;669;50.206;9.998;2023-03-01T03:15:06;-0.30;59.00
1351;DHT22;669;50.206;9.998;2023-03-01T03:17:35;-0.30;58.50
1351;DHT22;669;50.206;9.998;2023-03-01T03:20:04;-0.30;58.80
1351;DHT22;669;50.206;9.998;2023-03-01T03:22:38;-0.30;58.40
1351;DHT22;669;50.206;9.998;2023-03-01T03:25:07;-0.30;58.20
1351;DHT22;669;50.206;9.998;2023-03-01T03:27:37;-0.30;59.00
1351;DHT22;669;50.206;9.998;2023-03-01T03:30:08;-0.30;58.00
1351;DHT22;669;50.206;9.998;2023-03-01T03:32:38;-0.30;58.70
1351;DHT22;669;50.206;9.998;2023-03-01T03:35:08;-0.30;58.90
1351;DHT22;669;50.206;9.998;2023-03-01T03:37:37;-0.30;59.40
1351;DHT22;669;50.206;9.998;2023-03-01T03:40:23;-0.30;59.90
1351;DHT22;669;50.206;9.998;2023-03-01T03:42:51;-0.30;59.50
1351;DHT22;669;50.206;9.998;2023-03-01T03:45:20;-0.40;59.00
1351;DHT22;669;50.206;9.998;2023-03-01T03:47:48;-0.30;59.60
1351;DHT22;669;50.206;9.998;2023-03-01T03:50:18;-0.40;58.20
1351;DHT22;669;50.206;9.998;2023-03-01T03:52:46;-0.40;58.80
1351;DHT22;669;50.206;9.998;2023-03-01T03:55:14;-0.40;59.00
1351;DHT22;669;50.206;9.998;2023-03-01T03:57:47;-0.40;58.00
1351;DHT22;669;50.206;9.998;2023-03-01T04:00:20;-0.40;58.60
1351;DHT22;669;50.206;9.998;2023-03-01T04:02:51;-0.40;58.50
1351;DHT22;669;50.206;9.998;2023-03-01T04:05:23;-0.40;57.70
1351;DHT22;669;50.206;9.998;2023-03-01T04:07:51;-0.40;57.60
1351;DHT22;669;50.206;9.998;2023-03-01T04:10:29;-0.40;59.00
1351;DHT22;669;50.206;9.998;2023-03-01T04:12:58;-0.40;57.60
1351;DHT22;669;50.206;9.998;2023-03-01T04:15:27;-0.40;59.20
1351;DHT22;669;50.206;9.998;2023-03-01T04:17:55;-0.50;58.60
1351;DHT22;669;50.206;9.998;2023-03-01T04:20:28;-0.50;58.90
1351;DHT22;669;50.206;9.998;2023-03-01T04:23:00;-0.50;59.20
1351;DHT22;669;50.206;9.998;2023-03-01T04:25:38;-0.50;58.70
1351;DHT22;669;50.206;9.998;2023-03-01T04:28:06;-0.50;59.20
1351;DHT22;669;50.206;9.998;2023-03-01T04:30:37;-0.50;59.80
1351;DHT22;669;50.206;9.998;2023-03-01T04:33:06;-0.60;59.10
1351;DHT22;669;50.206;9.998;2023-03-01T04:35:35;-0.60;58.90
1351;DHT22;669;50.206;9.998;2023-03-01T04:38:04;-0.60;58.20
1351;DHT22;669;50.206;9.998;2023-03-01T04:40:33;-0.60;58.20
1351;DHT22;669;50.206;9.998;2023-03-01T04:43:01;-0.60;58.90
1351;DHT22;669;50.206;9.998;2023-03-01T04:45:31;-0.60;58.50
1351;DHT22;669;50.206;9.998;2023-03-01T04:48:00;-0.60;58.60
1351;DHT22;669;50.206;9.998;2023-03-01T04:50:28;-0.60;59.40
1351;DHT22;669;50.206;9.998;2023-03-01T04:52:56;-0.60;59.10
1351;DHT22;669;50.206;9.998;2023-03-01T04:55:26;-0.60;58.80
1351;DHT22;669;50.206;9.998;2023-03-01T04:57:54;-0.60;59.20
1351;DHT22;669;50.206;9.998;2023-03-01T05:00:22;-0.60;59.50
1351;DHT22;669;50.206;9.998;2023-03-01T05:02:53;-0.60;59.10
1351;DHT22;669;50.206;9.998;2023-03-01T05:05:25;-0.60;58.90
1351;DHT22;669;50.206;9.998;2023-03-01T05:07:55;-0.60;59.00
1351;DHT22;669;50.206;9.998;2023-03-01T05:10:24;-0.60;59.30
1351;DHT22;669;50.206;9.998;2023-03-01T05:12:52;-0.60;59.30
1351;DHT22;669;50.206;9.998;2023-03-01T05:15:20;-0.60;58.80
1351;DHT22;669;50.206;9.998;2023-03-01T05:17:52;-0.60;60.00
1351;DHT22;669;50.206;9.998;2023-03-01T05:20:22;-0.60;59.30
1351;DHT22;669;50.206;9.998;2023-03-01T05:22:51;-0.60;60.20
1351;DHT22;669;50.206;9.998;2023-03-01T05:25:19;-0.60;60.10
1351;DHT22;669;50.206;9.998;2023-03-01T05:27:48;-0.60;59.40
1351;DHT22;669;50.206;9.998;2023-03-01T05:30:16;-0.60;60.20
1351;DHT22;669;50.206;9.998;2023-03-01T05:32:46;-0.60;59.40
1351;DHT22;669;50.206;9.998;2023-03-01T05:35:16;-0.60;60.20
1351;DHT22;669;50.206;9.998;2023-03-01T05:37:47;-0.60;60.50
1351;DHT22;669;50.206;9.998;2023-03-01T05:40:17;-0.60;59.90
1351;DHT22;669;50.206;9.998;2023-03-01T05:42:47;-0.60;59.60
1351;DHT22;669;50.206;9.998;2023-03-01T05:45:16;-0.60;60.50
1351;DHT22;669;50.206;9.998;2023-03-01T05:47:46;-0.60;61.30
1351;DHT22;669;50.206;9.998;2023-03-01T05:50:17;-0.60;60.50
1351;DHT22;669;50.206;9.998;2023-03-01T05:52:49;-0.60;60.50
1351;DHT22;669;50.206;9.998;2023-03-01T05:55:19;-0.60;60.20
1351;DHT22;669;50.206;9.998;2023-03-01T05:57:47;-0.60;60.40
1351;DHT22;669;50.206;9.998;2023-03-01T06:00:18;-0.70;59.70
1351;DHT22;669;50.206;9.998;2023-03-01T06:02:46;-0.60;60.60
1351;DHT22;669;50.206;9.998;2023-03-01T06:05:14;-0.60;59.30
1351;DHT22;669;50.206;9.998;2023-03-01T06:07:42;-0.60;60.50
1351;DHT22;669;50.206;9.998;2023-03-01T06:10:13;-0.70;60.50
1351;DHT22;669;50.206;9.998;2023-03-01T06:12:42;-0.70;60.50
1351;DHT22;669;50.206;9.998;2023-03-01T06:15:11;-0.60;60.00
1351;DHT22;669;50.206;9.998;2023-03-01T06:17:41;-0.70;60.50
1351;DHT22;669;50.206;9.998;2023-03-01T06:20:12;-0.60;60.50
1351;DHT22;669;50.206;9.998;2023-03-01T06:22:41;-0.60;60.50
1351;DHT22;669;50.206;9.998;2023-03-01T06:25:10;-0.60;60.50
1351;DHT22;669;50.206;9.998;2023-03-01T06:27:40;-0.60;60.50
1351;DHT22;669;50.206;9.998;2023-03-01T06:30:10;-0.60;60.50
1351;DHT22;669;50.206;9.998;2023-03-01T06:32:38;-0.50;60.30
1351;DHT22;669;50.206;9.998;2023-03-01T06:35:09;-0.30;60.80
1351;DHT22;669;50.206;9.998;2023-03-01T06:37:37;0.00;58.30
1351;DHT22;669;50.206;9.998;2023-03-01T06:40:07;0.30;57.70
1351;DHT22;669;50.206;9.998;2023-03-01T06:42:41;0.60;56.40
1351;DHT22;669;50.206;9.998;2023-03-01T06:45:10;0.90;53.50
1351;DHT22;669;50.206;9.998;2023-03-01T06:47:38;1.20;52.40
1351;DHT22;669;50.206;9.998;2023-03-01T06:50:06;1.40;51.50
1351;DHT22;669;50.206;9.998;2023-03-01T06:52:34;1.70;51.00
1351;DHT22;669;50.206;9.998;2023-03-01T06:55:03;2.00;50.40
1351;DHT22;669;50.206;9.998;2023-03-01T06:57:31;2.20;49.60
1351;DHT22;669;50.206;9.998;2023-03-01T07:00:00;2.40;47.30
1351;DHT22;669;50.206;9.998;2023-03-01T07:02:28;2.60;47.20
1351;DHT22;669;50.206;9.998;2023-03-01T07:04:58;2.80;46.20
1351;DHT22;669;50.206;9.998;2023-03-01T07:07:29;3.00;46.10
1351;DHT22;669;50.206;9.998;2023-03-01T07:09:57;3.20;45.80
1351;DHT22;669;50.206;9.998;2023-03-01T07:12:25;3.30;43.60
1351;DHT22;669;50.206;9.998;2023-03-01T07:14:53;3.40;43.00
1351;DHT22;669;50.206;9.998;2023-03-01T07:17:22;3.50;43.20
1351;DHT22;669;50.206;9.998;2023-03-01T07:19:50;3.70;42.60
1351;DHT22;669;50.206;9.998;2023-03-01T07:22:18;3.80;42.60
1351;DHT22;669;50.206;9.998;2023-03-01T07:24:46;3.90;42.70
1351;DHT22;669;50.206;9.998;2023-03-01T07:27:13;4.10;41.90
1351;DHT22;669;50.206;9.998;2023-03-01T07:29:41;4.30;41.10
1351;DHT22;669;50.206;9.998;2023-03-01T07:32:09;4.50;39.70
1351;DHT22;669;50.206;9.998;2023-03-01T07:34:39;4.50;39.60
1351;DHT22;669;50.206;9.998;2023-03-01T07:37:07;4.70;40.00
1351;DHT22;669;50.206;9.998;2023-03-01T07:39:35;5.00;40.40
1351;DHT22;669;50.206;9.998;2023-03-01T07:42:03;5.30;39.10
1351;DHT22;669;50.206;9.998;2023-03-01T07:44:31;5.20;37.70
1351;DHT22;669;50.206;9.998;2023-03-01T07:46:59;5.50;37.60
1351;DHT22;669;50.206;9.998;2023-03-01T07:49:27;5.50;37.50
1351;DHT22;669;50.206;9.998;2023-03-01T07:51:56;5.70;36.60
1351;DHT22;669;50.206;9.998;2023-03-01T07:54:24;5.80;37.10
1351;DHT22;669;50.206;9.998;2023-03-01T07:56:52;5.80;35.90
1351;DHT22;669;50.206;9.998;2023-03-01T07:59:21;5.80;36.50
1351;DHT22;669;50.206;9.998;2023-03-01T08:01:50;5.90;36.10
1351;DHT22;669;50.206;9.998;2023-03-01T08:04:18;5.90;37.40
1351;DHT22;669;50.206;9.998;2023-03-01T08:06:46;5.80;36.10
1351;DHT22;669;50.206;9.998;2023-03-01T08:09:15;6.10;36.00
1351;DHT22;669;50.206;9.998;2023-03-01T08:11:43;6.50;35.20
1351;DHT22;669;50.206;9.998;2023-03-01T08:14:11;6.60;34.50
1351;DHT22;669;50.206;9.998;2023-03-01T08:16:38;6.60;34.50
1351;DHT22;669;50.206;9.998;2023-03-01T08:19:08;6.60;34.70
1351;DHT22;669;50.206;9.998;2023-03-01T08:21:36;6.70;34.20
1351;DHT22;669;50.206;9.998;2023-03-01T08:24:06;6.60;34.70
1351;DHT22;669;50.206;9.998;2023-03-01T08:26:35;6.70;34.60
1351;DHT22;669;50.206;9.998;2023-03-01T08:29:03;6.90;35.00
1351;DHT22;669;50.206;9.998;2023-03-01T08:31:34;7.10;34.10
1351;DHT22;669;50.206;9.998;2023-03-01T08:34:06;7.00;33.10
1351;DHT22;669;50.206;9.998;2023-03-01T08:36:36;7.10;33.80
1351;DHT22;669;50.206;9.998;2023-03-01T08:39:05;7.30;34.80
1351;DHT22;669;50.206;9.998;2023-03-01T08:41:34;7.40;32.90
1351;DHT22;669;50.206;9.998;2023-03-01T08:44:02;7.60;32.80
1351;DHT22;669;50.206;9.998;2023-03-01T08:46:32;7.70;32.10
1351;DHT22;669;50.206;9.998;2023-03-01T08:49:03;7.70;33.00
1351;DHT22;669;50.206;9.998;2023-03-01T08:51:32;7.50;31.20
1351;DHT22;669;50.206;9.998;2023-03-01T08:54:03;7.40;32.60
1351;DHT22;669;50.206;9.998;2023-03-01T08:56:31;7.70;33.30
1351;DHT22;669;50.206;9.998;2023-03-01T08:59:01;7.90;31.50
1351;DHT22;669;50.206;9.998;2023-03-01T09:01:29;7.90;31.00
1351;DHT22;669;50.206;9.998;2023-03-01T09:03:56;7.30;31.10
1351;DHT22;669;50.206;9.998;2023-03-01T09:06:25;7.50;30.40
1351;DHT22;669;50.206;9.998;2023-03-01T09:08:53;7.50;33.20
1351;DHT22;669;50.206;9.998;2023-03-01T09:11:21;7.80;31.40
1351;DHT22;669;50.206;9.998;2023-03-01T09:13:49;7.70;33.50
1351;DHT22;669;50.206;9.998;2023-03-01T09:16:21;7.70;31.30
1351;DHT22;669;50.206;9.998;2023-03-01T09:18:49;7.90;30.80
1351;DHT22;669;50.206;9.998;2023-03-01T09:21:19;7.70;30.60
1351;DHT22;669;50.206;9.998;2023-03-01T09:24:05;7.90;30.80
1351;DHT22;669;50.206;9.998;2023-03-01T09:26:33;8.40;31.10
1351;DHT22;669;50.206;9.998;2023-03-01T09:29:01;8.60;30.20
1351;DHT22;669;50.206;9.998;2023-03-01T09:31:31;8.40;29.40
1351;DHT22;669;50.206;9.998;2023-03-01T09:33:58;7.60;29.60
1351;DHT22;669;50.206;9.998;2023-03-01T09:36:26;7.70;32.60
1351;DHT22;669;50.206;9.998;2023-03-01T09:38:56;7.90;31.40
1351;DHT22;669;50.206;9.998;2023-03-01T09:41:38;8.10;31.70
1351;DHT22;669;50.206;9.998;2023-03-01T09:44:15;8.30;31.00
1351;DHT22;669;50.206;9.998;2023-03-01T09:46:47;8.60;31.30
1351;DHT22;669;50.206;9.998;2023-03-01T09:49:18;8.70;29.20
1351;DHT22;669;50.206;9.998;2023-03-01T09:51:55;8.50;30.80
1351;DHT22;669;50.206;9.998;2023-03-01T09:54:23;8.30;29.90
1351;DHT22;669;50.206;9.998;2023-03-01T09:57:02;8.10;30.90
1351;DHT22;669;50.206;9.998;2023-03-01T09:59:54;8.60;30.20
1351;DHT22;669;50.206;9.998;2023-03-01T10:02:33;9.10;28.70
1351;DHT22;669;50.206;9.998;2023-03-01T10:05:26;9.40;30.00
1351;DHT22;669;50.206;9.998;2023-03-01T10:08:14;9.60;29.70
1351;DHT22;669;50.206;9.998;2023-03-01T10:10:47;9.60;30.10
1351;DHT22;669;50.206;9.998;2023-03-01T10:13:19;9.80;28.80
1351;DHT22;669;50.206;9.998;2023-03-01T10:15:50;10.00;27.20
1351;DHT22;669;50.206;9.998;2023-03-01T10:18:25;10.00;27.40
1351;DHT22;669;50.206;9.998;2023-03-01T10:20:57;10.00;27.60
1351;DHT22;669;50.206;9.998;2023-03-01T10:23:27;9.80;28.00
1351;DHT22;669;50.206;9.998;2023-03-01T10:26:04;9.90;28.10
1351;DHT22;669;50.206;9.998;2023-03-01T10:28:44;10.10;26.90
1351;DHT22;669;50.206;9.998;2023-03-01T10:31:15;10.20;28.30
1351;DHT22;669;50.206;9.998;2023-03-01T10:33:47;10.50;26.20
1351;DHT22;669;50.206;9.998;2023-03-01T10:36:20;10.80;26.30
1351;DHT22;669;50.206;9.998;2023-03-01T10:38:49;10.70;26.50
1351;DHT22;669;50.206;9.998;2023-03-01T10:41:18;10.50;27.80
1351;DHT22;669;50.206;9.998;2023-03-01T10:43:48;10.50;26.60
1351;DHT22;669;50.206;9.998;2023-03-01T10:46:23;10.10;28.10
1351;DHT22;669;50.206;9.998;2023-03-01T10:49:17;10.40;26.40
1351;DHT22;669;50.206;9.998;2023-03-01T10:51:48;10.70;26.80
1351;DHT22;669;50.206;9.998;2023-03-01T10:54:19;10.70;25.50
1351;DHT22;669;50.206;9.998;2023-03-01T10:56:49;10.80;27.10
1351;DHT22;669;50.206;9.998;2023-03-01T10:59:25;10.90;26.80
1351;DHT22;669;50.206;9.998;2023-03-01T11:02:16;10.90;25.20
1351;DHT22;669;50.206;9.998;2023-03-01T11:05:01;11.10;25.20
1351;DHT22;669;50.206;9.998;2023-03-01T11:07:29;11.50;26.50
1351;DHT22;669;50.206;9.998;2023-03-01T11:09:57;11.80;25.70
1351;DHT22;669;50.206;9.998;2023-03-01T11:12:25;12.00;26.00
1351;DHT22;669;50.206;9.998;2023-03-01T11:14:56;11.60;23.50
1351;DHT22;669;50.206;9.998;2023-03-01T11:17:27;11.20;26.30
1351;DHT22;669;50.206;9.998;2023-03-01T11:20:06;11.30;25.90
1351;DHT22;669;50.206;9.998;2023-03-01T11:22:46;11.00;23.60
1351;DHT22;669;50.206;9.998;2023-03-01T11:25:15;10.90;26.70
1351;DHT22;669;50.206;9.998;2023-03-01T11:27:45;11.20;26.80
1351;DHT22;669;50.206;9.998;2023-03-01T11:30:20;10.70;26.60
1351;DHT22;669;50.206;9.998;2023-03-01T11:32:54;11.00;26.40
1351;DHT22;669;50.206;9.998;2023-03-01T11:35:27;11.00;27.30
1351;DHT22;669;50.206;9.998;2023-03-01T11:38:02;11.00;27.20
1351;DHT22;669;50.206;9.998;2023-03-01T11:40:34;11.20;26.10
1351;DHT22;669;50.206;9.998;2023-03-01T11:43:11;11.30;26.80
1351;DHT22;669;50.206;9.998;2023-03-01T11:45:51;11.60;26.10
1351;DHT22;669;50.206;9.998;2023-03-01T11:48:35;11.10;27.10
1351;DHT22;669;50.206;9.998;2023-03-01T11:51:23;11.40;27.90
1351;DHT22;669;50.206;9.998;2023-03-01T11:54:01;11.90;26.30
1351;DHT22;669;50.206;9.998;2023-03-01T11:56:34;12.10;26.00
1351;DHT22;669;50.206;9.998;2023-03-01T11:59:21;12.30;25.10
1351;DHT22;669;50.206;9.998;2023-03-01T12:07:48;12.80;24.40
1351;DHT22;669;50.206;9.998;2023-03-01T12:10:25;13.20;24.20
1351;DHT22;669;50.206;9.998;2023-03-01T12:13:15;12.90;24.90
1351;DHT22;669;50.206;9.998;2023-03-01T12:15:57;13.00;24.20
1351;DHT22;669;50.206;9.998;2023-03-01T12:18:51;13.10;23.80
1351;DHT22;669;50.206;9.998;2023-03-01T12:21:28;13.10;23.10
1351;DHT22;669;50.206;9.998;2023-03-01T12:24:32;12.80;26.10
1351;DHT22;669;50.206;9.998;2023-03-01T12:27:20;12.80;24.40
1351;DHT22;669;50.206;9.998;2023-03-01T12:29:56;12.80;24.00
1351;DHT22;669;50.206;9.998;2023-03-01T12:32:37;12.90;21.70
1351;DHT22;669;50.206;9.998;2023-03-01T12:35:29;12.80;24.70
1351;DHT22;669;50.206;9.998;2023-03-01T12:38:10;12.80;24.50
1351;DHT22;669;50.206;9.998;2023-03-01T12:41:05;12.60;24.70
1351;DHT22;669;50.206;9.998;2023-03-01T12:43:47;12.50;25.30
1351;DHT22;669;50.206;9.998;2023-03-01T12:46:25;12.40;22.80
1351;DHT22;669;50.206;9.998;2023-03-01T12:49:01;12.50;24.60
1351;DHT22;669;50.206;9.998;2023-03-01T12:51:33;12.30;26.00
1351;DHT22;669;50.206;9.998;2023-03-01T12:54:06;12.40;25.20
1351;DHT22;669;50.206;9.998;2023-03-01T12:56:40;12.40;25.20
1351;DHT22;669;50.206;9.998;2023-03-01T12:59:13;12.60;24.40
1351;DHT22;669;50.206;9.998;2023-03-01T13:01:48;12.60;23.60
1351;DHT22;669;50.206;9.998;2023-03-01T13:04:37;12.60;24.30
1351;DHT22;669;50.206;9.998;2023-03-01T13:07:17;12.30;23.20
1351;DHT22;669;50.206;9.998;2023-03-01T13:09:51;11.80;26.40
1351;DHT22;669;50.206;9.998;2023-03-01T13:12:53;12.10;27.00
1351;DHT22;669;50.206;9.998;2023-03-01T13:15:35;12.50;24.70
1351;DHT22;669;50.206;9.998;2023-03-01T13:18:11;12.40;24.80
1351;DHT22;669;50.206;9.998;2023-03-01T13:20:56;12.20;24.10
1351;DHT22;669;50.206;9.998;2023-03-01T13:23:28;12.00;25.90
1351;DHT22;669;50.206;9.998;2023-03-01T13:26:09;12.20;25.10
1351;DHT22;669;50.206;9.998;2023-03-01T13:28:46;12.00;24.50
1351;DHT22;669;50.206;9.998;2023-03-01T13:34:47;11.70;25.60
1351;DHT22;669;50.206;9.998;2023-03-01T13:37:25;11.80;24.80
1351;DHT22;669;50.206;9.998;2023-03-01T13:39:57;11.80;25.90
1351;DHT22;669;50.206;9.998;2023-03-01T13:42:34;11.80;25.00
1351;DHT22;669;50.206;9.998;2023-03-01T13:45:21;11.90;26.30
1351;DHT22;669;50.206;9.998;2023-03-01T13:47:57;11.60;26.80
1351;DHT22;669;50.206;9.998;2023-03-01T13:50:27;11.30;24.50
1351;DHT22;669;50.206;9.998;2023-03-01T13:52:59;11.30;24.50
1351;DHT22;669;50.206;9.998;2023-03-01T13:55:35;11.30;25.00
1351;DHT22;669;50.206;9.998;2023-03-01T13:58:16;11.40;26.80
1351;DHT22;669;50.206;9.998;2023-03-01T14:00:45;11.30;25.80
1351;DHT22;669;50.206;9.998;2023-03-01T14:03:15;11.20;25.80
1351;DHT22;669;50.206;9.998;2023-03-01T14:05:57;11.20;25.80
1351;DHT22;669;50.206;9.998;2023-03-01T14:08:39;11.20;24.70
1351;DHT22;669;50.206;9.998;2023-03-01T14:14:29;10.80;25.50
1351;DHT22;669;50.206;9.998;2023-03-01T14:19:56;10.70;26.40
1351;DHT22;669;50.206;9.998;2023-03-01T14:22:26;10.60;25.60
1351;DHT22;669;50.206;9.998;2023-03-01T14:24:56;10.70;25.80
1351;DHT22;669;50.206;9.998;2023-03-01T14:27:28;10.50;27.10
1351;DHT22;669;50.206;9.998;2023-03-01T14:30:00;10.40;26.10
1351;DHT22;669;50.206;9.998;2023-03-01T14:32:31;10.40;25.40
1351;DHT22;669;50.206;9.998;2023-03-01T14:35:00;10.20;24.90
1351;DHT22;669;50.206;9.998;2023-03-01T14:37:31;10.10;25.30
1351;DHT22;669;50.206;9.998;2023-03-01T14:40:00;10.20;27.10
1351;DHT22;669;50.206;9.998;2023-03-01T14:42:33;9.90;27.00
1351;DHT22;669;50.206;9.998;2023-03-01T14:45:02;10.00;27.60
1351;DHT22;669;50.206;9.998;2023-03-01T14:47:34;9.90;25.60
1351;DHT22;669;50.206;9.998;2023-03-01T14:50:07;9.70;27.60
1351;DHT22;669;50.206;9.998;2023-03-01T14:52:38;9.70;28.60
1351;DHT22;669;50.206;9.998;2023-03-01T14:55:15;9.60;28.10
1351;DHT22;669;50.206;9.998;2023-03-01T14:57:44;9.70;28.40
1351;DHT22;669;50.206;9.998;2023-03-01T15:00:19;9.70;28.40
1351;DHT22;669;50.206;9.998;2023-03-01T15:02:50;9.50;27.20
1351;DHT22;669;50.206;9.998;2023-03-01T15:05:24;9.20;27.20
1351;DHT22;669;50.206;9.998;2023-03-01T15:07:53;9.20;28.80
1351;DHT22;669;50.206;9.998;2023-03-01T15:10:23;9.20;28.60
1351;DHT22;669;50.206;9.998;2023-03-01T15:12:51;9.10;29.00
1351;DHT22;669;50.206;9.998;2023-03-01T15:15:34;8.80;28.90
1351;DHT22;669;50.206;9.998;2023-03-01T15:18:13;8.60;28.90
1351;DHT22;669;50.206;9.998;2023-03-01T15:20:41;8.50;29.20
1351;DHT22;669;50.206;9.998;2023-03-01T15:23:21;8.50;30.50
1351;DHT22;669;50.206;9.998;2023-03-01T15:25:51;8.20;31.00
1351;DHT22;669;50.206;9.998;2023-03-01T15:28:25;8.20;29.60
1351;DHT22;669;50.206;9.998;2023-03-01T15:30:57;8.10;30.90
1351;DHT22;669;50.206;9.998;2023-03-01T15:33:35;8.00;29.20
1351;DHT22;669;50.206;9.998;2023-03-01T15:36:32;7.80;30.60
1351;DHT22;669;50.206;9.998;2023-03-01T15:39:01;7.70;31.00
1351;DHT22;669;50.206;9.998;2023-03-01T15:41:30;7.70;30.60
1351;DHT22;669;50.206;9.998;2023-03-01T15:44:00;7.60;32.40
1351;DHT22;669;50.206;9.998;2023-03-01T15:46:31;7.60;31.90
1351;DHT22;669;50.206;9.998;2023-03-01T15:49:03;7.60;31.50
1351;DHT22;669;50.206;9.998;2023-03-01T15:51:35;7.40;30.30
1351;DHT22;669;50.206;9.998;2023-03-01T15:54:06;7.30;32.60
1351;DHT22;669;50.206;9.998;2023-03-01T15:56:34;7.20;33.20
1351;DHT22;669;50.206;9.998;2023-03-01T15:59:02;7.20;33.10
1351;DHT22;669;50.206;9.998;2023-03-01T16:01:31;7.10;33.00
1351;DHT22;669;50.206;9.998;2023-03-01T16:04:00;7.00;33.40
1351;DHT22;669;50.206;9.998;2023-03-01T16:06:29;7.00;34.40
1351;DHT22;669;50.206;9.998;2023-03-01T16:08:59;6.90;34.60
1351;DHT22;669;50.206;9.998;2023-03-01T16:11:27;6.80;34.20
1351;DHT22;669;50.206;9.998;2023-03-01T16:13:55;6.70;34.60
1351;DHT22;669;50.206;9.998;2023-03-01T16:16:23;6.70;34.60
1351;DHT22;669;50.206;9.998;2023-03-01T16:18:51;6.60;35.50
1351;DHT22;669;50.206;9.998;2023-03-01T16:21:22;6.60;37.30
1351;DHT22;669;50.206;9.998;2023-03-01T16:23:51;6.50;35.60
1351;DHT22;669;50.206;9.998;2023-03-01T16:26:21;6.50;35.50
1351;DHT22;669;50.206;9.998;2023-03-01T16:28:48;6.40;36.10
1351;DHT22;669;50.206;9.998;2023-03-01T16:31:20;6.30;37.10
1351;DHT22;669;50.206;9.998;2023-03-01T16:33:49;6.30;37.70
1351;DHT22;669;50.206;9.998;2023-03-01T16:36:19;6.20;37.20
1351;DHT22;669;50.206;9.998;2023-03-01T16:38:47;6.00;36.90
1351;DHT22;669;50.206;9.998;2023-03-01T16:41:17;6.00;37.90
1351;DHT22;669;50.206;9.998;2023-03-01T16:43:47;5.90;38.00
1351;DHT22;669;50.206;9.998;2023-03-01T16:46:16;5.80;39.40
1351;DHT22;669;50.206;9.998;2023-03-01T16:48:45;5.70;39.90
1351;DHT22;669;50.206;9.998;2023-03-01T16:51:14;5.60;38.50
1351;DHT22;669;50.206;9.998;2023-03-01T16:53:42;5.50;39.20
1351;DHT22;669;50.206;9.998;2023-03-01T16:56:13;5.50;39.80
1351;DHT22;669;50.206;9.998;2023-03-01T16:58:42;5.40;39.70
1351;DHT22;669;50.206;9.998;2023-03-01T17:01:13;5.30;40.00
1351;DHT22;669;50.206;9.998;2023-03-01T17:03:42;5.30;40.00
1351;DHT22;669;50.206;9.998;2023-03-01T17:06:13;5.20;39.80
1351;DHT22;669;50.206;9.998;2023-03-01T17:08:41;5.10;38.10
1351;DHT22;669;50.206;9.998;2023-03-01T17:11:11;5.00;39.30